Time;durP1;ratioP1;P1;durP2;ratioP2;P2;SDS_P1;SDS_P2;PMS_P1;PMS_P2;Temp;Humidity;BMP_temperature;BMP_pressure;BME280_temperature;BME280_humidity;BME280_pressure;Samples;Min_cycle;Max_cycle;Signal;HPM_P1;HPM_P2
2022/05/25 00:01:24;;;;;;;1.47;1.37;;;;;;;;;;5523604;23;20251;-87
2022/05/25 00:03:53;;;;;;;2.60;0.90;;;;;;;;;;4981866;28;20217;-87
2022/05/25 00:06:22;;;;;;;2.83;1.30;;;;;;;;;;4971666;28;20206;-86
2022/05/25 00:08:50;;;;;;;1.17;0.83;;;;;;;;;;4977497;28;20213;-87
2022/05/25 00:11:20;;;;;;;0.50;0.50;;;;;;;;;;4977511;28;20210;-87
2022/05/25 00:13:48;;;;;;;0.97;0.97;;;;;;;;;;4977619;28;20221;-87
2022/05/25 00:16:17;;;;;;;0.93;0.93;;;;;;;;;;4977554;28;20203;-87
2022/05/25 00:21:28;;;;;;;1.03;1.03;;;;;;;;;;4992317;28;20207;-87
2022/05/25 00:23:56;;;;;;;0.70;0.70;;;;;;;;;;4993896;28;20211;-86
2022/05/25 00:26:26;;;;;;;2.97;1.27;;;;;;;;;;4977599;28;20211;-87
2022/05/25 00:28:55;;;;;;;0.40;0.40;;;;;;;;;;4977329;28;20236;-87
2022/05/25 00:31:24;;;;;;;0.93;0.93;;;;;;;;;;4977011;28;20206;-87
2022/05/25 00:33:53;;;;;;;3.17;1.00;;;;;;;;;;4976063;28;20212;-87
2022/05/25 00:36:21;;;;;;;1.13;1.03;;;;;;;;;;4993474;28;20244;-87
2022/05/25 00:38:52;;;;;;;1.17;0.87;;;;;;;;;;4993506;28;20225;-87
2022/05/25 00:41:24;;;;;;;0.50;0.50;;;;;;;;;;4977269;28;20210;-87
2022/05/25 00:43:53;;;;;;;2.03;1.90;;;;;;;;;;4994369;28;20265;-87
2022/05/25 00:46:22;;;;;;;1.23;0.83;;;;;;;;;;4977103;28;20298;-88
2022/05/25 00:48:53;;;;;;;3.43;1.33;;;;;;;;;;4976950;28;20268;-87
2022/05/25 00:51:24;;;;;;;1.03;0.70;;;;;;;;;;4976918;28;20211;-87
2022/05/25 00:53:54;;;;;;;3.70;0.80;;;;;;;;;;4977298;28;20234;-87
2022/05/25 00:56:23;;;;;;;0.60;0.60;;;;;;;;;;4994032;28;20216;-87
2022/05/25 00:58:55;;;;;;;0.47;0.47;;;;;;;;;;4977068;28;20243;-87
2022/05/25 01:01:23;;;;;;;0.40;0.40;;;;;;;;;;4972934;28;20333;-87
2022/05/25 01:03:52;;;;;;;0.50;0.50;;;;;;;;;;4957307;28;20207;-87
2022/05/25 01:06:26;;;;;;;1.17;1.07;;;;;;;;;;4957429;28;20219;-87
2022/05/25 01:08:59;;;;;;;0.60;0.60;;;;;;;;;;4977867;28;20190;-87
2022/05/25 01:11:38;;;;;;;1.07;1.00;;;;;;;;;;4956170;28;20206;-87
2022/05/25 01:14:14;;;;;;;0.93;0.93;;;;;;;;;;4957683;28;20199;-87
2022/05/25 01:16:46;;;;;;;0.40;0.40;;;;;;;;;;4989883;28;20201;-87
2022/05/25 01:19:24;;;;;;;3.93;1.53;;;;;;;;;;4957615;28;20223;-87
2022/05/25 01:21:55;;;;;;;0.50;0.50;;;;;;;;;;4957235;28;20198;-87
2022/05/25 01:24:31;;;;;;;0.70;0.70;;;;;;;;;;4957165;28;20222;-87
2022/05/25 01:27:24;;;;;;;1.77;1.13;;;;;;;;;;4957058;28;20209;-87
2022/05/25 01:30:00;;;;;;;1.70;1.70;;;;;;;;;;4956769;28;20218;-87
2022/05/25 01:32:31;;;;;;;0.60;0.60;;;;;;;;;;4989677;28;20197;-87
2022/05/25 01:35:01;;;;;;;1.10;1.03;;;;;;;;;;4989830;28;20195;-87
2022/05/25 01:37:37;;;;;;;1.73;1.63;;;;;;;;;;4957037;28;20202;-87
2022/05/25 01:40:12;;;;;;;1.00;0.90;;;;;;;;;;4957573;28;20202;-87
2022/05/25 01:42:42;;;;;;;0.50;0.50;;;;;;;;;;4957395;28;20204;-87
2022/05/25 01:45:12;;;;;;;6.23;1.70;;;;;;;;;;4973392;28;20298;-87
2022/05/25 01:47:44;;;;;;;1.30;1.07;;;;;;;;;;4957504;28;20209;-87
2022/05/25 01:50:14;;;;;;;2.20;1.17;;;;;;;;;;4973176;28;20203;-87
2022/05/25 01:52:45;;;;;;;1.10;1.07;;;;;;;;;;4973243;28;20200;-87
2022/05/25 01:55:15;;;;;;;2.47;0.80;;;;;;;;;;4973184;28;20204;-87
2022/05/25 01:57:45;;;;;;;0.47;0.47;;;;;;;;;;4957100;28;20195;-87
2022/05/25 02:00:28;;;;;;;0.40;0.40;;;;;;;;;;4957073;28;20217;-87
2022/05/25 02:05:45;;;;;;;0.60;0.60;;;;;;;;;;4974341;28;20209;-87
2022/05/25 02:08:20;;;;;;;2.23;0.97;;;;;;;;;;4974196;28;20208;-87
2022/05/25 02:10:56;;;;;;;1.33;1.23;;;;;;;;;;4974251;28;20198;-87
2022/05/25 02:13:28;;;;;;;0.47;0.47;;;;;;;;;;4958747;28;20244;-87
2022/05/25 02:16:06;;;;;;;2.80;1.07;;;;;;;;;;4976759;28;20210;-87
2022/05/25 02:18:37;;;;;;;3.20;1.07;;;;;;;;;;4976778;28;20222;-87
2022/05/25 02:21:08;;;;;;;1.33;1.23;;;;;;;;;;4976373;28;20249;-87
2022/05/25 02:23:39;;;;;;;0.63;0.63;;;;;;;;;;4960053;28;20209;-88
2022/05/25 02:26:10;;;;;;;0.73;0.73;;;;;;;;;;4977349;28;20205;-88
2022/05/25 02:28:41;;;;;;;1.33;1.03;;;;;;;;;;4977316;28;20275;-88
2022/05/25 02:31:13;;;;;;;0.80;0.80;;;;;;;;;;4960442;28;20222;-88
2022/05/25 02:33:43;;;;;;;1.07;0.97;;;;;;;;;;4976565;28;20207;-88
2022/05/25 02:36:12;;;;;;;2.37;1.00;;;;;;;;;;4960152;28;20201;-88
2022/05/25 02:38:42;;;;;;;1.27;1.20;;;;;;;;;;4976065;28;20221;-88
2022/05/25 02:41:12;;;;;;;4.77;1.53;;;;;;;;;;4976021;28;20209;-88
2022/05/25 02:43:40;;;;;;;0.80;0.80;;;;;;;;;;4976732;28;20203;-88
2022/05/25 02:46:09;;;;;;;0.50;0.50;;;;;;;;;;4975932;28;20203;-87
2022/05/25 02:48:40;;;;;;;12.43;1.47;;;;;;;;;;4976200;28;20206;-88
2022/05/25 02:51:08;;;;;;;1.00;1.00;;;;;;;;;;4975926;28;20198;-88
2022/05/25 02:53:43;;;;;;;0.63;0.63;;;;;;;;;;4959774;28;20213;-87
2022/05/25 02:56:12;;;;;;;0.60;0.60;;;;;;;;;;4959861;28;20207;-88
2022/05/25 02:58:40;;;;;;;0.93;0.80;;;;;;;;;;4975841;28;20223;-88
2022/05/25 03:01:09;;;;;;;0.87;0.87;;;;;;;;;;4976368;28;20253;-88
2022/05/25 03:03:38;;;;;;;1.73;0.80;;;;;;;;;;4975819;28;20212;-88
2022/05/25 03:06:09;;;;;;;0.60;0.60;;;;;;;;;;4975570;28;20234;-88
2022/05/25 03:08:37;;;;;;;0.80;0.80;;;;;;;;;;4975685;28;20209;-88
2022/05/25 03:11:07;;;;;;;0.87;0.87;;;;;;;;;;4975408;28;20295;-88
2022/05/25 03:13:35;;;;;;;0.50;0.50;;;;;;;;;;4976554;28;20189;-88
2022/05/25 03:16:05;;;;;;;0.60;0.60;;;;;;;;;;4975757;28;20279;-89
2022/05/25 03:18:34;;;;;;;0.60;0.60;;;;;;;;;;4976014;28;20248;-88
2022/05/25 03:21:02;;;;;;;2.20;1.07;;;;;;;;;;4975236;28;20201;-88
2022/05/25 03:23:32;;;;;;;0.50;0.50;;;;;;;;;;4975222;28;20244;-89
2022/05/25 03:26:00;;;;;;;0.60;0.60;;;;;;;;;;4975527;28;20248;-88
2022/05/25 03:28:29;;;;;;;0.50;0.50;;;;;;;;;;4975723;28;20211;-88
2022/05/25 03:30:57;;;;;;;0.97;0.80;;;;;;;;;;4975319;28;20203;-88
2022/05/25 03:33:25;;;;;;;0.60;0.60;;;;;;;;;;4975497;28;20260;-88
2022/05/25 03:35:54;;;;;;;2.27;1.20;;;;;;;;;;4959062;28;20205;-88
2022/05/25 03:38:22;;;;;;;0.47;0.47;;;;;;;;;;4975464;28;20211;-88
2022/05/25 03:40:52;;;;;;;1.70;1.60;;;;;;;;;;4958810;28;20202;-88
2022/05/25 03:43:21;;;;;;;3.20;1.00;;;;;;;;;;4985162;28;20208;-88
2022/05/25 03:45:49;;;;;;;0.60;0.60;;;;;;;;;;4958882;28;20230;-88
2022/05/25 03:48:18;;;;;;;0.60;0.60;;;;;;;;;;4958893;28;20209;-88
2022/05/25 03:50:46;;;;;;;1.13;0.80;;;;;;;;;;4959140;28;20291;-88
2022/05/25 03:53:15;;;;;;;1.47;1.37;;;;;;;;;;4975747;28;20216;-88
2022/05/25 03:55:43;;;;;;;3.10;1.50;;;;;;;;;;4958594;28;20204;-88
2022/05/25 03:58:13;;;;;;;10.30;1.77;;;;;;;;;;4991152;28;20209;-88
2022/05/25 04:00:42;;;;;;;2.13;1.60;;;;;;;;;;4990846;28;20227;-88
2022/05/25 04:03:12;;;;;;;1.57;1.57;;;;;;;;;;4990828;28;20287;-88
2022/05/25 04:05:41;;;;;;;1.17;1.17;;;;;;;;;;4958849;28;20260;-88
2022/05/25 04:08:11;;;;;;;0.60;0.60;;;;;;;;;;4991215;28;20210;-89
2022/05/25 04:10:40;;;;;;;1.33;1.13;;;;;;;;;;4990846;28;20228;-88
2022/05/25 04:13:08;;;;;;;2.07;1.57;;;;;;;;;;4990682;28;20201;-88
2022/05/25 04:15:38;;;;;;;0.60;0.60;;;;;;;;;;4958496;28;20208;-88
2022/05/25 04:18:07;;;;;;;1.57;1.23;;;;;;;;;;4958260;28;20201;-88
2022/05/25 04:20:35;;;;;;;0.77;0.77;;;;;;;;;;4958478;28;20256;-88
2022/05/25 04:23:04;;;;;;;0.70;0.70;;;;;;;;;;4990579;28;20206;-88
2022/05/25 04:25:33;;;;;;;5.93;1.63;;;;;;;;;;4975125;28;20202;-87
2022/05/25 04:28:01;;;;;;;4.83;1.60;;;;;;;;;;4975165;28;20209;-88
2022/05/25 04:30:30;;;;;;;4.50;1.83;;;;;;;;;;4958646;28;20198;-88
2022/05/25 04:33:01;;;;;;;5.30;1.37;;;;;;;;;;4975272;28;20205;-88
2022/05/25 04:35:29;;;;;;;3.63;1.77;;;;;;;;;;4957259;28;20209;-88
2022/05/25 04:37:58;;;;;;;1.43;1.30;;;;;;;;;;4958107;28;20212;-88
2022/05/25 04:40:28;;;;;;;1.00;0.90;;;;;;;;;;4958087;28;20222;-88
2022/05/25 04:42:58;;;;;;;0.70;0.70;;;;;;;;;;4958414;28;20233;-88
2022/05/25 04:45:27;;;;;;;0.97;0.97;;;;;;;;;;4974207;28;20201;-88
2022/05/25 04:47:56;;;;;;;4.60;1.50;;;;;;;;;;4974208;28;20206;-88
2022/05/25 04:50:27;;;;;;;0.77;0.60;;;;;;;;;;4958447;28;20209;-88
2022/05/25 04:52:56;;;;;;;4.77;2.20;;;;;;;;;;4975583;28;20221;-88
2022/05/25 04:58:17;;;;;;;1.00;1.00;;;;;;;;;;4975416;28;20222;-88
2022/05/25 05:00:46;;;;;;;1.40;1.30;;;;;;;;;;4957999;28;20238;-87
2022/05/25 05:03:14;;;;;;;3.90;1.90;;;;;;;;;;4975258;28;20245;-88
2022/05/25 05:05:45;;;;;;;2.43;2.00;;;;;;;;;;4974072;28;20212;-82
2022/05/25 05:08:14;;;;;;;3.30;3.00;;;;;;;;;;4958106;28;20199;-88
2022/05/25 05:10:42;;;;;;;4.13;3.13;;;;;;;;;;4974276;28;20214;-88
2022/05/25 05:13:11;;;;;;;3.27;2.50;;;;;;;;;;4958018;28;20213;-88
2022/05/25 05:15:41;;;;;;;2.17;1.97;;;;;;;;;;4957608;28;20202;-87
2022/05/25 05:18:09;;;;;;;4.23;2.97;;;;;;;;;;4974276;28;20202;-88
2022/05/25 05:20:39;;;;;;;4.50;4.10;;;;;;;;;;4957865;28;20289;-87
2022/05/25 05:23:13;;;;;;;4.87;3.17;;;;;;;;;;4957977;28;20305;-88
2022/05/25 05:25:41;;;;;;;6.43;3.20;;;;;;;;;;4974133;28;20202;-88
2022/05/25 05:28:11;;;;;;;4.20;2.87;;;;;;;;;;4973730;28;20197;-87
2022/05/25 05:30:41;;;;;;;3.83;2.47;;;;;;;;;;4974788;28;20194;-88
2022/05/25 05:33:09;;;;;;;4.63;2.90;;;;;;;;;;4957948;28;20233;-88
2022/05/25 05:35:38;;;;;;;5.20;3.73;;;;;;;;;;4973474;28;20210;-87
2022/05/25 05:38:07;;;;;;;3.00;2.67;;;;;;;;;;4957716;28;20295;-88
2022/05/25 05:40:37;;;;;;;2.90;2.63;;;;;;;;;;4957402;28;20213;-87
2022/05/25 05:43:06;;;;;;;7.30;2.43;;;;;;;;;;4974818;28;20202;-87
2022/05/25 05:45:37;;;;;;;5.57;2.37;;;;;;;;;;4973932;28;20297;-87
2022/05/25 05:48:07;;;;;;;13.63;2.60;;;;;;;;;;4960245;28;20222;-87
2022/05/25 05:50:38;;;;;;;0.87;0.87;;;;;;;;;;4977788;28;20208;-87
2022/05/25 05:53:07;;;;;;;6.70;1.77;;;;;;;;;;4977265;28;20213;-87
2022/05/25 05:55:37;;;;;;;5.70;1.70;;;;;;;;;;4977337;28;20209;-86
2022/05/25 05:58:05;;;;;;;3.57;1.90;;;;;;;;;;4976882;28;20202;-87
2022/05/25 06:00:34;;;;;;;7.63;2.13;;;;;;;;;;4976149;28;20221;-86
2022/05/25 06:03:02;;;;;;;5.40;2.50;;;;;;;;;;4976500;28;20255;-86
2022/05/25 06:05:31;;;;;;;3.83;1.93;;;;;;;;;;4977567;28;20202;-87
2022/05/25 06:08:07;;;;;;;4.97;2.03;;;;;;;;;;4976681;28;20212;-87
2022/05/25 06:10:37;;;;;;;7.33;2.83;;;;;;;;;;4977707;28;20208;-86
2022/05/25 06:13:07;;;;;;;3.63;1.63;;;;;;;;;;4976940;28;20234;-87
2022/05/25 06:21:08;;;;;;;7.80;2.93;;;;;;;;;;4976493;28;20307;-86
2022/05/25 06:23:36;;;;;;;3.40;0.90;;;;;;;;;;4977311;28;20255;-86
2022/05/25 06:26:07;;;;;;;7.67;3.80;;;;;;;;;;4977249;28;20203;-86
2022/05/25 06:28:36;;;;;;;4.63;1.60;;;;;;;;;;4976392;28;20204;-85
2022/05/25 06:31:04;;;;;;;1.50;1.40;;;;;;;;;;4977295;28;20196;-86
2022/05/25 06:33:33;;;;;;;4.37;2.20;;;;;;;;;;4977470;28;20248;-86
2022/05/25 06:36:12;;;;;;;6.63;3.10;;;;;;;;;;4960090;28;20202;-86
2022/05/25 06:38:40;;;;;;;9.40;4.60;;;;;;;;;;4976117;28;20211;-86
2022/05/25 06:41:10;;;;;;;5.50;1.80;;;;;;;;;;4975934;28;20228;-86
2022/05/25 06:43:39;;;;;;;5.80;2.50;;;;;;;;;;4977055;28;20205;-87
2022/05/25 06:46:07;;;;;;;1.90;1.00;;;;;;;;;;4976012;28;20212;-86
2022/05/25 06:48:47;;;;;;;5.10;2.63;;;;;;;;;;4959780;28;20283;-86
2022/05/25 06:51:17;;;;;;;1.03;0.90;;;;;;;;;;4975611;28;20291;-86
2022/05/25 06:53:50;;;;;;;2.23;1.53;;;;;;;;;;4959985;28;20227;-86
2022/05/25 06:56:31;;;;;;;2.57;1.87;;;;;;;;;;4960140;28;20263;-86
2022/05/25 06:59:08;;;;;;;10.57;4.43;;;;;;;;;;4974818;28;20232;-86
2022/05/25 07:01:39;;;;;;;6.17;4.00;;;;;;;;;;4975633;28;20229;-86
2022/05/25 07:04:12;;;;;;;1.57;1.47;;;;;;;;;;4976067;28;20279;-86
2022/05/25 07:06:44;;;;;;;2.67;1.43;;;;;;;;;;4959795;28;20252;-86
2022/05/25 07:09:30;;;;;;;6.50;2.93;;;;;;;;;;4959913;28;20212;-86
2022/05/25 07:12:17;;;;;;;7.13;2.57;;;;;;;;;;4959387;28;20193;-86
2022/05/25 07:14:52;;;;;;;16.30;5.00;;;;;;;;;;4959821;28;20208;-86
2022/05/25 07:17:35;;;;;;;10.73;4.33;;;;;;;;;;4976231;28;20212;-86
2022/05/25 07:20:29;;;;;;;8.67;4.53;;;;;;;;;;4959825;28;20197;-86
2022/05/25 07:23:03;;;;;;;9.20;4.97;;;;;;;;;;4960970;28;20221;-85
2022/05/25 07:25:49;;;;;;;2.47;2.00;;;;;;;;;;4960498;28;20204;-85
2022/05/25 07:28:36;;;;;;;3.53;1.93;;;;;;;;;;4960282;28;20289;-84
2022/05/25 07:31:22;;;;;;;2.73;2.07;;;;;;;;;;4971479;28;20224;-85
2022/05/25 07:44:09;;;;;;;2.83;1.47;;;;;;;;;;4980295;28;20206;-87
2022/05/25 07:47:30;;;;;;;6.93;2.43;;;;;;;;;;4968513;28;20209;-85
2022/05/25 07:50:12;;;;;;;5.43;3.60;;;;;;;;;;4971553;28;20197;-87
2022/05/25 07:56:29;;;;;;;6.17;3.37;;;;;;;;;;4965716;28;20204;-84
2022/05/25 07:59:13;;;;;;;4.00;3.10;;;;;;;;;;4965747;28;20209;-87
2022/05/25 08:07:20;;;;;;;10.43;6.03;;;;;;;;;;4958388;28;20223;-85
2022/05/25 08:09:56;;;;;;;7.87;4.50;;;;;;;;;;4968398;28;20208;-87
2022/05/25 08:12:32;;;;;;;3.13;2.53;;;;;;;;;;4965354;28;20204;-87
2022/05/25 08:15:17;;;;;;;11.97;3.50;;;;;;;;;;4971807;28;20201;-87
2022/05/25 08:17:52;;;;;;;5.07;2.70;;;;;;;;;;4966221;28;20214;-88
2022/05/25 08:20:23;;;;;;;5.67;3.13;;;;;;;;;;4969438;28;20211;-87
2022/05/25 08:22:55;;;;;;;3.93;2.00;;;;;;;;;;4971404;28;20279;-87
2022/05/25 08:25:24;;;;;;;4.37;2.87;;;;;;;;;;4972721;28;20228;-87
2022/05/25 08:27:56;;;;;;;6.57;2.67;;;;;;;;;;4955040;28;20205;-87
2022/05/25 08:30:37;;;;;;;2.57;1.53;;;;;;;;;;4970009;28;20220;-87
2022/05/25 08:33:17;;;;;;;3.90;2.27;;;;;;;;;;4973608;28;20196;-87
2022/05/25 08:38:38;;;;;;;4.93;2.77;;;;;;;;;;4970501;28;20218;-86
2022/05/25 08:41:30;;;;;;;4.97;1.60;;;;;;;;;;4941076;28;20263;-87
2022/05/25 08:44:00;;;;;;;2.53;1.17;;;;;;;;;;4966560;28;20274;-87
2022/05/25 08:46:36;;;;;;;5.60;1.20;;;;;;;;;;4975559;28;20208;-88
2022/05/25 08:49:14;;;;;;;5.23;2.67;;;;;;;;;;4956704;28;20206;-87
2022/05/25 08:51:46;;;;;;;2.57;1.07;;;;;;;;;;4969901;28;20254;-87
2022/05/25 08:57:50;;;;;;;1.47;1.27;;;;;;;;;;4955435;28;20304;-87
2022/05/25 09:00:32;;;;;;;3.37;1.90;;;;;;;;;;4951394;28;20200;-87
2022/05/25 09:03:27;;;;;;;5.83;1.63;;;;;;;;;;4946148;28;20259;-86
2022/05/25 09:09:52;;;;;;;1.20;1.07;;;;;;;;;;4952403;28;20208;-86
2022/05/25 09:12:30;;;;;;;3.90;1.20;;;;;;;;;;4954418;28;20296;-86
2022/05/25 09:19:05;;;;;;;0.80;0.80;;;;;;;;;;4937251;28;20224;-86
2022/05/25 09:21:53;;;;;;;1.43;1.07;;;;;;;;;;4951582;28;20225;-87
2022/05/25 09:24:43;;;;;;;0.57;0.57;;;;;;;;;;4964480;28;20212;-86
2022/05/25 09:27:32;;;;;;;1.33;1.03;;;;;;;;;;4957415;28;20296;-86
2022/05/25 09:30:20;;;;;;;4.43;1.60;;;;;;;;;;4976227;28;20233;-86
2022/05/25 09:33:31;;;;;;;1.90;1.60;;;;;;;;;;4957550;28;20227;-86
2022/05/25 09:40:44;;;;;;;2.27;1.93;;;;;;;;;;4927789;29;20215;-86
2022/05/25 09:43:54;;;;;;;3.07;1.13;;;;;;;;;;4887737;29;20228;-86
2022/05/25 09:46:58;;;;;;;4.30;1.33;;;;;;;;;;4901349;29;20215;-87
2022/05/25 09:49:57;;;;;;;1.10;1.00;;;;;;;;;;4871706;29;20208;-86
2022/05/25 09:52:51;;;;;;;2.27;0.83;;;;;;;;;;4885785;28;20291;-85
2022/05/25 09:55:31;;;;;;;2.30;1.07;;;;;;;;;;4968838;28;20201;-86
2022/05/25 09:58:28;;;;;;;2.23;1.20;;;;;;;;;;4972267;28;20197;-86
2022/05/25 10:01:09;;;;;;;1.17;0.80;;;;;;;;;;4959067;28;20345;-85
2022/05/25 10:03:48;;;;;;;1.17;1.17;;;;;;;;;;4953031;28;20239;-86
2022/05/25 10:06:42;;;;;;;1.53;1.30;;;;;;;;;;4972840;28;20196;-85
2022/05/25 10:09:14;;;;;;;1.17;0.80;;;;;;;;;;4963947;28;20208;-85
2022/05/25 10:11:48;;;;;;;3.70;0.70;;;;;;;;;;4968958;28;20278;-86
2022/05/25 10:21:07;;;;;;;1.10;0.90;;;;;;;;;;4943205;28;20207;-86
2022/05/25 10:46:01;;;;;;;;;;;;;;;;;;;;;
2022/05/25 10:52:25;;;;;;;5.27;1.33;;;;;;;;;;4975234;28;20252;-84
2022/05/25 10:55:20;;;;;;;2.70;0.97;;;;;;;;;;4946388;28;20229;-84
2022/05/25 10:58:40;;;;;;;4.50;1.43;;;;;;;;;;4959700;28;20205;-87
2022/05/25 11:02:16;;;;;;;1.10;0.90;;;;;;;;;;4893377;29;20326;-86
2022/05/25 11:12:01;;;;;;;2.20;1.13;;;;;;;;;;4875707;29;20209;-84
2022/05/25 11:22:57;;;;;;;3.37;1.00;;;;;;;;;;4873054;29;20323;-86
2022/05/25 11:29:57;;;;;;;5.67;2.53;;;;;;;;;;4803820;29;20246;-87
2022/05/25 11:32:49;;;;;;;1.20;0.90;;;;;;;;;;4800372;29;20247;-85
2022/05/25 11:36:26;;;;;;;4.10;1.57;;;;;;;;;;4822323;29;20278;-85
2022/05/25 11:39:48;;;;;;;4.77;1.30;;;;;;;;;;4805204;29;20210;-85
2022/05/25 11:42:47;;;;;;;4.33;1.20;;;;;;;;;;4805831;29;20207;-86
2022/05/25 11:45:43;;;;;;;2.90;1.27;;;;;;;;;;4846248;29;20212;-85
2022/05/25 11:48:57;;;;;;;2.00;0.70;;;;;;;;;;4956503;28;20216;-85
2022/05/25 11:54:59;;;;;;;4.83;0.90;;;;;;;;;;4963202;28;20208;-85
2022/05/25 11:58:01;;;;;;;3.60;1.60;;;;;;;;;;4955378;28;20234;-85
2022/05/25 12:01:10;;;;;;;5.13;1.60;;;;;;;;;;4952043;28;20218;-86
2022/05/25 12:03:58;;;;;;;1.80;1.07;;;;;;;;;;4965589;28;20236;-86
2022/05/25 12:06:49;;;;;;;5.73;1.00;;;;;;;;;;4971353;28;20292;-84
2022/05/25 12:09:33;;;;;;;2.30;1.03;;;;;;;;;;4963985;28;20201;-84
2022/05/25 12:12:12;;;;;;;5.83;1.40;;;;;;;;;;4965420;28;20292;-85
2022/05/25 12:14:55;;;;;;;0.63;0.63;;;;;;;;;;4953245;28;20219;-85
2022/05/25 12:17:44;;;;;;;0.80;0.80;;;;;;;;;;4966929;28;20206;-85
2022/05/25 12:20:29;;;;;;;2.33;1.47;;;;;;;;;;4950930;28;20207;-85
2022/05/25 12:23:12;;;;;;;0.90;0.83;;;;;;;;;;4951191;28;20217;-85
2022/05/25 12:25:52;;;;;;;1.60;1.00;;;;;;;;;;4961743;28;20236;-84
2022/05/25 12:28:31;;;;;;;11.00;1.63;;;;;;;;;;4956531;28;20201;-82
2022/05/25 12:31:04;;;;;;;1.43;0.97;;;;;;;;;;4950894;28;20232;-82
2022/05/25 12:33:34;;;;;;;1.43;1.00;;;;;;;;;;4950231;28;20200;-83
2022/05/25 12:36:11;;;;;;;2.30;0.73;;;;;;;;;;4964652;28;20201;-84
2022/05/25 12:38:43;;;;;;;4.40;1.20;;;;;;;;;;4958001;28;20255;-85
2022/05/25 12:41:32;;;;;;;2.60;1.60;;;;;;;;;;4960157;28;20196;-83
2022/05/25 12:49:51;;;;;;;5.43;0.90;;;;;;;;;;4951919;28;20209;-83
2022/05/25 12:52:53;;;;;;;4.37;1.83;;;;;;;;;;4964593;28;20205;-84
2022/05/25 12:55:33;;;;;;;4.43;1.23;;;;;;;;;;4959157;28;20228;-86
2022/05/25 12:58:06;;;;;;;1.07;0.80;;;;;;;;;;4957333;28;20193;-86
2022/05/25 13:00:39;;;;;;;2.00;0.90;;;;;;;;;;4975573;28;20264;-84
2022/05/25 13:03:29;;;;;;;3.17;1.30;;;;;;;;;;4973126;28;20243;-85
2022/05/25 13:06:08;;;;;;;3.53;1.77;;;;;;;;;;4904010;29;20241;-85
2022/05/25 13:09:08;;;;;;;3.80;1.17;;;;;;;;;;4896974;29;20255;-83
2022/05/25 13:11:44;;;;;;;1.13;0.93;;;;;;;;;;4947515;28;20213;-82
2022/05/25 13:14:39;;;;;;;3.70;1.27;;;;;;;;;;4982788;28;20207;-85
2022/05/25 13:17:14;;;;;;;5.03;1.63;;;;;;;;;;4953005;28;20201;-84
2022/05/25 13:20:46;;;;;;;4.43;1.40;;;;;;;;;;4967727;28;20514;-85
2022/05/25 13:23:41;;;;;;;3.53;1.30;;;;;;;;;;4934879;28;20228;-85
2022/05/25 13:26:19;;;;;;;7.53;1.53;;;;;;;;;;4966767;28;20202;-84
2022/05/25 13:29:00;;;;;;;4.20;1.57;;;;;;;;;;4961073;28;20243;-86
2022/05/25 13:31:37;;;;;;;8.50;2.20;;;;;;;;;;4969208;28;20256;-86
2022/05/25 13:34:42;;;;;;;7.93;2.17;;;;;;;;;;4954970;28;20196;-86
2022/05/25 13:37:15;;;;;;;8.77;2.47;;;;;;;;;;4972005;28;20346;-86
2022/05/25 13:39:53;;;;;;;4.53;1.90;;;;;;;;;;4968155;28;20205;-86
2022/05/25 13:42:29;;;;;;;8.47;2.00;;;;;;;;;;4979686;28;20218;-86
2022/05/25 13:48:57;;;;;;;6.43;2.07;;;;;;;;;;4903401;29;20287;-86
2022/05/25 13:51:43;;;;;;;6.70;1.63;;;;;;;;;;4893806;29;20222;-85
2022/05/25 13:54:34;;;;;;;2.67;1.37;;;;;;;;;;4892918;29;20235;-85
2022/05/25 13:57:17;;;;;;;5.20;1.73;;;;;;;;;;4893062;29;20303;-84
2022/05/25 13:59:49;;;;;;;7.17;1.83;;;;;;;;;;4883385;29;20226;-84
2022/05/25 14:02:36;;;;;;;6.37;2.23;;;;;;;;;;4893955;29;20231;-86
2022/05/25 14:11:45;;;;;;;8.67;2.33;;;;;;;;;;4905137;29;20235;-85
2022/05/25 14:14:36;;;;;;;6.27;1.70;;;;;;;;;;4894895;29;20215;-86
2022/05/25 14:17:35;;;;;;;2.80;1.60;;;;;;;;;;4895494;29;20256;-86
2022/05/25 14:20:17;;;;;;;4.83;1.87;;;;;;;;;;4894944;29;20204;-86
2022/05/25 14:23:18;;;;;;;6.20;1.87;;;;;;;;;;4894890;29;20218;-85
2022/05/25 14:26:07;;;;;;;3.80;1.50;;;;;;;;;;4964666;28;20201;-85
2022/05/25 14:28:52;;;;;;;6.70;2.70;;;;;;;;;;4971907;28;20205;-85
2022/05/25 14:31:42;;;;;;;6.53;2.27;;;;;;;;;;4955841;28;20205;-83
2022/05/25 14:35:32;;;;;;;7.70;2.17;;;;;;;;;;4945311;28;20204;-85
2022/05/25 14:38:39;;;;;;;3.37;1.30;;;;;;;;;;4958140;28;20201;-86
2022/05/25 14:41:55;;;;;;;6.03;2.30;;;;;;;;;;4971855;28;20227;-86
2022/05/25 14:44:39;;;;;;;7.23;1.90;;;;;;;;;;4968708;28;20217;-85
2022/05/25 14:51:08;;;;;;;4.70;2.30;;;;;;;;;;4971892;28;20238;-86
2022/05/25 14:54:13;;;;;;;12.47;3.67;;;;;;;;;;4972779;28;20261;-85
2022/05/25 14:56:59;;;;;;;4.70;1.30;;;;;;;;;;4971273;28;20208;-86
2022/05/25 15:00:01;;;;;;;9.80;1.87;;;;;;;;;;4955340;28;20240;-85
2022/05/25 15:03:23;;;;;;;3.33;2.60;;;;;;;;;;4971785;28;20240;-86
2022/05/25 15:06:52;;;;;;;5.07;2.40;;;;;;;;;;4950600;28;20212;-86
2022/05/25 15:10:01;;;;;;;9.43;2.50;;;;;;;;;;4955984;28;20201;-87
2022/05/25 15:13:04;;;;;;;4.20;1.57;;;;;;;;;;4951931;28;20213;-87
2022/05/25 15:19:34;;;;;;;7.37;2.07;;;;;;;;;;4975802;28;20257;-86
2022/05/25 15:22:24;;;;;;;8.73;2.57;;;;;;;;;;4967358;28;20209;-86
2022/05/25 15:25:31;;;;;;;7.63;3.40;;;;;;;;;;4953054;28;20265;-84
2022/05/25 15:28:09;;;;;;;6.43;1.73;;;;;;;;;;4968335;28;20202;-85
2022/05/25 15:30:42;;;;;;;8.30;3.10;;;;;;;;;;4976737;28;20214;-85
2022/05/25 15:33:11;;;;;;;10.53;2.37;;;;;;;;;;4993779;28;20203;-84
2022/05/25 15:35:39;;;;;;;4.20;1.40;;;;;;;;;;4992705;28;20200;-85
2022/05/25 15:38:09;;;;;;;8.13;1.97;;;;;;;;;;4994271;28;20197;-85
2022/05/25 15:40:40;;;;;;;7.07;2.00;;;;;;;;;;4994743;28;20204;-85
2022/05/25 15:43:10;;;;;;;2.43;0.97;;;;;;;;;;4990950;28;20305;-84
2022/05/25 15:45:40;;;;;;;4.87;1.77;;;;;;;;;;4959578;28;20220;-85
2022/05/25 15:48:09;;;;;;;7.37;2.67;;;;;;;;;;4959132;28;20217;-85
2022/05/25 15:50:39;;;;;;;10.30;2.83;;;;;;;;;;4959088;28;20283;-85
2022/05/25 15:53:08;;;;;;;11.03;2.43;;;;;;;;;;4959422;28;20199;-85
2022/05/25 15:55:39;;;;;;;9.90;3.00;;;;;;;;;;4959386;28;20205;-85
2022/05/25 15:58:07;;;;;;;7.00;1.50;;;;;;;;;;4958837;28;20212;-85
2022/05/25 16:00:37;;;;;;;10.30;2.70;;;;;;;;;;4959267;28;20209;-85
2022/05/25 16:03:08;;;;;;;9.93;2.80;;;;;;;;;;4958946;28;20303;-86
2022/05/25 16:05:37;;;;;;;8.13;2.97;;;;;;;;;;4959167;28;20236;-86
2022/05/25 16:10:54;;;;;;;5.37;2.33;;;;;;;;;;4990963;28;20205;-86
2022/05/25 16:13:22;;;;;;;5.97;1.23;;;;;;;;;;4959519;28;20212;-86
2022/05/25 16:15:51;;;;;;;11.20;3.40;;;;;;;;;;4976027;28;20198;-85
2022/05/25 16:18:19;;;;;;;8.63;2.93;;;;;;;;;;4958725;28;20205;-84
2022/05/25 16:20:48;;;;;;;5.90;2.47;;;;;;;;;;4990980;28;20228;-84
2022/05/25 16:23:18;;;;;;;10.03;2.30;;;;;;;;;;4990809;28;20215;-84
2022/05/25 16:25:47;;;;;;;7.50;2.20;;;;;;;;;;4958711;28;20221;-83
2022/05/25 16:28:16;;;;;;;12.33;2.37;;;;;;;;;;4958653;28;20203;-84
2022/05/25 16:30:45;;;;;;;7.03;2.27;;;;;;;;;;4958199;28;20211;-84
2022/05/25 16:33:16;;;;;;;11.90;3.77;;;;;;;;;;4958549;28;20217;-84
2022/05/25 16:35:45;;;;;;;5.13;2.13;;;;;;;;;;4975658;28;20209;-84
2022/05/25 16:38:13;;;;;;;9.43;2.83;;;;;;;;;;4958647;28;20208;-85
2022/05/25 16:40:42;;;;;;;6.37;3.23;;;;;;;;;;4958348;28;20200;-85
2022/05/25 16:43:10;;;;;;;10.63;2.50;;;;;;;;;;4957887;28;20244;-84
2022/05/25 16:45:40;;;;;;;9.43;2.83;;;;;;;;;;4973892;28;20220;-84
2022/05/25 16:48:09;;;;;;;3.70;1.50;;;;;;;;;;4975306;28;20205;-84
2022/05/25 16:50:38;;;;;;;5.23;2.60;;;;;;;;;;4974616;28;20219;-85
2022/05/25 16:53:06;;;;;;;7.87;2.23;;;;;;;;;;4958358;28;20208;-85
2022/05/25 16:55:35;;;;;;;7.80;2.23;;;;;;;;;;4974041;28;20224;-86
2022/05/25 16:58:04;;;;;;;13.63;4.97;;;;;;;;;;4957707;28;20266;-85
2022/05/25 17:00:33;;;;;;;9.43;2.43;;;;;;;;;;4958383;28;20200;-85
2022/05/25 17:03:02;;;;;;;17.80;3.77;;;;;;;;;;4975259;28;20200;-85
2022/05/25 17:05:31;;;;;;;9.87;2.77;;;;;;;;;;4957840;28;20289;-85
2022/05/25 17:07:59;;;;;;;7.97;2.97;;;;;;;;;;4975247;28;20256;-85
2022/05/25 17:10:28;;;;;;;3.83;3.40;;;;;;;;;;4958225;28;20208;-85
2022/05/25 17:12:56;;;;;;;16.13;2.90;;;;;;;;;;4958148;28;20218;-85
2022/05/25 17:15:25;;;;;;;8.37;3.07;;;;;;;;;;4974151;28;20203;-85
2022/05/25 17:17:53;;;;;;;9.40;2.57;;;;;;;;;;4958063;28;20217;-85
2022/05/25 17:20:40;;;;;;;13.23;4.00;;;;;;;;;;5502312;23;20238;-83
2022/05/25 17:23:10;;;;;;;6.23;2.13;;;;;;;;;;5004611;28;20208;-83
2022/05/25 17:25:40;;;;;;;9.60;2.70;;;;;;;;;;4996591;28;20227;-83
2022/05/25 17:28:08;;;;;;;8.50;1.60;;;;;;;;;;4996419;28;20203;-82
2022/05/25 17:30:37;;;;;;;10.90;2.73;;;;;;;;;;5013851;28;20212;-83
2022/05/25 17:33:06;;;;;;;14.60;4.13;;;;;;;;;;4996742;28;20217;-82
2022/05/25 17:41:47;;;;;;;7.30;3.90;;;;;;;;;;5013762;28;20199;-83
2022/05/25 17:43:56;;;;;;;3.80;1.53;;;;;;;;;;5016736;28;20225;-82
2022/05/25 17:46:24;;;;;;;3.50;1.83;;;;;;;;;;5000445;28;20222;-83
2022/05/25 17:48:53;;;;;;;8.50;3.13;;;;;;;;;;5000136;28;20199;-82
2022/05/25 17:51:21;;;;;;;9.10;2.57;;;;;;;;;;5000414;28;20199;-82
2022/05/25 17:53:51;;;;;;;3.03;1.20;;;;;;;;;;5017353;28;20230;-83
2022/05/25 17:56:21;;;;;;;18.23;3.80;;;;;;;;;;5000230;28;20199;-83
2022/05/25 17:58:49;;;;;;;7.20;3.37;;;;;;;;;;4999819;28;20207;-82
2022/05/25 18:01:17;;;;;;;3.17;2.73;;;;;;;;;;5016579;28;20203;-83